createdAt,value
2019-05-06T00:00:56.670Z,7.45
2019-05-06T00:01:46.978Z,7.40
2019-05-06T00:02:47.117Z,7.37
2019-05-06T00:03:47.266Z,7.34
2019-05-06T00:04:47.412Z,7.41
2019-05-06T00:05:47.557Z,7.42
2019-05-06T00:06:47.703Z,7.45
2019-05-06T00:07:47.854Z,7.32
2019-05-06T00:08:47.997Z,7.26
2019-05-06T00:09:48.142Z,7.24
2019-05-06T00:10:48.287Z,7.27
2019-05-06T00:11:48.432Z,7.31
2019-05-06T00:12:48.578Z,7.15
2019-05-06T00:13:48.723Z,7.20
2019-05-06T00:14:48.871Z,7.15
2019-05-06T00:15:49.019Z,7.17
2019-05-06T00:16:49.164Z,7.19
2019-05-06T00:17:49.309Z,7.17
2019-05-06T00:18:49.456Z,7.16
2019-05-06T00:19:49.607Z,7.24
2019-05-06T00:20:49.746Z,7.19
2019-05-06T00:21:49.891Z,7.09
2019-05-06T00:22:50.039Z,7.04
2019-05-06T00:23:50.184Z,7.07
2019-05-06T00:24:50.330Z,7.13
2019-05-06T00:25:50.479Z,7.16
2019-05-06T00:26:50.624Z,7.26
2019-05-06T00:27:50.768Z,7.27
2019-05-06T00:28:50.914Z,7.26
2019-05-06T00:29:51.061Z,7.37
2019-05-06T00:30:51.204Z,7.29
2019-05-06T00:31:53.516Z,7.37
2019-05-06T00:32:53.746Z,7.29
2019-05-06T00:33:53.825Z,7.22
2019-05-06T00:34:51.781Z,7.35
2019-05-06T00:35:53.760Z,7.32
2019-05-06T00:36:54.324Z,7.44
2019-05-06T00:37:53.609Z,7.29
2019-05-06T00:38:53.958Z,7.37
2019-05-06T00:39:53.919Z,7.41
2019-05-06T00:40:54.331Z,7.42
2019-05-06T00:41:54.184Z,7.45
2019-05-06T00:42:54.224Z,7.45
2019-05-06T00:43:54.627Z,7.32
2019-05-06T00:44:53.713Z,7.27
2019-05-06T00:45:53.728Z,7.31
2019-05-06T00:46:54.606Z,7.26
2019-05-06T00:47:53.696Z,7.24
2019-05-06T00:48:54.378Z,7.26
2019-05-06T00:49:54.619Z,7.38
2019-05-06T00:50:54.122Z,7.35
2019-05-06T00:51:55.035Z,7.45
2019-05-06T00:52:54.413Z,7.42
2019-05-06T00:53:54.564Z,7.37
2019-05-06T00:54:54.871Z,7.37
2019-05-06T00:55:54.853Z,7.22
2019-05-06T00:56:54.998Z,7.15
2019-05-06T00:57:55.146Z,7.08
2019-05-06T00:58:55.291Z,7.07
2019-05-06T00:59:55.437Z,7.07
2019-05-06T01:00:55.583Z,7.09
2019-05-06T01:01:55.729Z,6.97
2019-05-06T01:02:55.878Z,6.97
2019-05-06T01:03:56.024Z,6.91
2019-05-06T01:04:56.169Z,7.01
2019-05-06T01:05:56.315Z,6.86
2019-05-06T01:06:56.455Z,6.86
2019-05-06T01:07:56.600Z,6.84
2019-05-06T01:08:56.745Z,6.81
2019-05-06T01:09:56.892Z,6.71
2019-05-06T01:10:57.057Z,6.69
2019-05-06T01:11:57.182Z,6.63
2019-05-06T01:12:57.327Z,6.59
2019-05-06T01:13:57.477Z,6.51
2019-05-06T01:14:57.624Z,6.47
2019-05-06T01:15:57.773Z,6.47
2019-05-06T01:16:57.917Z,6.48
2019-05-06T01:17:58.064Z,6.35
2019-05-06T01:18:58.210Z,6.30
2019-05-06T01:19:58.357Z,6.32
2019-05-06T01:20:58.503Z,6.38
2019-05-06T01:21:58.648Z,6.41
2019-05-06T01:22:58.794Z,6.38
2019-05-06T01:23:59.004Z,6.35
2019-05-06T01:24:59.075Z,6.47
2019-05-06T01:25:59.221Z,6.30
2019-05-06T01:26:59.369Z,6.40
2019-05-06T01:27:59.514Z,6.32
2019-05-06T01:28:59.659Z,6.28
2019-05-06T01:29:59.807Z,6.28
2019-05-06T01:30:59.949Z,6.11
2019-05-06T01:32:00.095Z,6.11
2019-05-06T01:33:00.239Z,5.95
2019-05-06T01:34:00.384Z,5.93
2019-05-06T01:35:00.530Z,5.93
2019-05-06T01:36:00.674Z,5.98
2019-05-06T01:37:00.822Z,5.96
2019-05-06T01:38:00.965Z,6.00
2019-05-06T01:39:01.110Z,5.95
2019-05-06T01:40:01.288Z,6.03
2019-05-06T01:41:01.401Z,6.09
2019-05-06T01:42:01.548Z,6.04
2019-05-06T01:43:03.494Z,5.83
2019-05-06T01:44:04.114Z,5.92
2019-05-06T01:45:01.984Z,5.83
2019-05-06T01:46:04.198Z,5.81
2019-05-06T01:47:03.773Z,5.74
2019-05-06T01:48:04.024Z,5.91
2019-05-06T01:49:04.248Z,5.88
2019-05-06T01:50:04.474Z,5.73
2019-05-06T01:51:03.527Z,5.78
2019-05-06T01:52:04.105Z,5.81
2019-05-06T01:53:04.968Z,5.71
2019-05-06T01:54:03.890Z,5.78
2019-05-06T01:55:04.834Z,5.83
2019-05-06T01:56:03.678Z,5.78
2019-05-06T01:57:04.387Z,5.67
2019-05-06T01:58:05.090Z,5.75
2019-05-06T01:59:04.698Z,5.74
2019-05-06T02:00:04.861Z,5.68
2019-05-06T02:01:04.313Z,5.83
2019-05-06T02:02:04.587Z,5.73
2019-05-06T02:03:04.628Z,5.67
2019-05-06T02:04:04.749Z,5.67
2019-05-06T02:05:04.945Z,5.66
2019-05-06T02:06:05.039Z,5.68
2019-05-06T02:07:05.185Z,5.74
2019-05-06T02:08:05.330Z,5.70
2019-05-06T02:09:05.472Z,5.67
2019-05-06T02:10:05.620Z,5.64
2019-05-06T02:11:05.764Z,5.56
2019-05-06T02:12:05.911Z,5.50
2019-05-06T02:13:06.055Z,5.37
2019-05-06T02:14:06.203Z,5.31
2019-05-06T02:15:06.349Z,5.28
2019-05-06T02:16:06.490Z,5.35
2019-05-06T02:17:06.637Z,5.35
2019-05-06T02:18:06.782Z,5.32
2019-05-06T02:19:06.928Z,5.32
2019-05-06T02:20:07.073Z,5.23
2019-05-06T02:21:07.221Z,5.22
2019-05-06T02:22:07.366Z,5.19
2019-05-06T02:23:07.510Z,5.27
2019-05-06T02:24:07.654Z,5.32
2019-05-06T02:25:07.799Z,5.34
2019-05-06T02:26:07.949Z,5.30
2019-05-06T02:27:08.088Z,5.31
2019-05-06T02:28:08.233Z,5.28
2019-05-06T02:29:08.378Z,5.25
2019-05-06T02:30:08.522Z,5.27
2019-05-06T02:31:08.669Z,5.20
2019-05-06T02:32:24.463Z,5.20
2019-05-06T02:33:08.959Z,5.25
2019-05-06T02:34:09.101Z,5.16
2019-05-06T02:35:09.249Z,5.13
2019-05-06T02:36:09.393Z,5.14
2019-05-06T02:37:09.536Z,5.12
2019-05-06T02:38:09.690Z,5.13
2019-05-06T02:39:09.824Z,5.05
2019-05-06T02:40:12.644Z,5.05
2019-05-06T02:41:10.116Z,5.10
2019-05-06T02:42:12.812Z,5.12
2019-05-06T02:43:13.423Z,5.20
2019-05-06T02:44:13.610Z,5.13
2019-05-06T02:45:12.736Z,5.07
2019-05-06T02:46:12.970Z,5.16
2019-05-06T02:47:13.652Z,5.16
2019-05-06T02:48:13.762Z,5.14
2019-05-06T02:49:13.256Z,5.19
2019-05-06T02:50:13.369Z,5.16
2019-05-06T02:51:13.381Z,5.16
2019-05-06T02:52:14.066Z,5.09
2019-05-06T02:53:13.379Z,5.10
2019-05-06T02:54:13.528Z,5.14
2019-05-06T02:55:12.932Z,5.13
2019-05-06T02:56:13.355Z,4.99
2019-05-06T02:57:13.148Z,5.07
2019-05-06T02:58:14.845Z,4.98
2019-05-06T02:59:13.042Z,4.92
2019-05-06T03:00:13.219Z,4.92
2019-05-06T03:01:13.550Z,4.89
2019-05-06T03:02:14.044Z,4.77
2019-05-06T03:03:14.202Z,4.88
2019-05-06T03:04:13.457Z,4.76
2019-05-06T03:05:13.601Z,4.83
2019-05-06T03:06:13.747Z,4.79
2019-05-06T03:07:14.720Z,4.84
2019-05-06T03:08:14.045Z,4.84
2019-05-06T03:09:14.182Z,4.89
2019-05-06T03:10:14.333Z,4.89
2019-05-06T03:11:14.472Z,4.91
2019-05-06T03:12:14.619Z,4.91
2019-05-06T03:13:14.764Z,4.80
2019-05-06T03:14:14.908Z,4.91
2019-05-06T03:15:16.827Z,4.84
2019-05-06T03:16:15.199Z,4.95
2019-05-06T03:17:15.342Z,4.98
2019-05-06T03:18:15.487Z,4.94
2019-05-06T03:19:15.634Z,5.02
2019-05-06T03:20:15.785Z,4.92
2019-05-06T03:21:15.924Z,4.80
2019-05-06T03:22:16.072Z,4.83
2019-05-06T03:23:16.218Z,4.89
2019-05-06T03:24:16.362Z,4.92
2019-05-06T03:25:16.504Z,4.84
2019-05-06T03:26:16.646Z,4.88
2019-05-06T03:27:16.794Z,4.83
2019-05-06T03:28:16.939Z,4.88
2019-05-06T03:29:17.085Z,4.95
2019-05-06T03:30:17.451Z,4.94
2019-05-06T03:31:17.428Z,4.86
2019-05-06T03:32:24.743Z,4.92
2019-05-06T03:33:45.041Z,4.80
2019-05-06T03:34:42.971Z,4.91
2019-05-06T03:35:33.149Z,4.86
2019-05-06T03:36:25.499Z,4.75
2019-05-06T03:37:18.258Z,4.80
2019-05-06T03:38:18.388Z,4.77
2019-05-06T03:39:18.533Z,4.76
2019-05-06T03:40:18.699Z,4.83
2019-05-06T03:41:18.826Z,4.84
2019-05-06T03:42:18.968Z,4.80
2019-05-06T03:43:19.113Z,4.79
2019-05-06T03:44:19.257Z,4.59
2019-05-06T03:45:19.405Z,4.70
2019-05-06T03:46:19.547Z,4.65
2019-05-06T03:47:19.694Z,4.57
2019-05-06T03:48:19.835Z,4.52
2019-05-06T03:49:19.982Z,4.62
2019-05-06T03:50:20.126Z,4.61
2019-05-06T03:51:23.076Z,4.58
2019-05-06T03:52:22.918Z,4.61
2019-05-06T03:53:23.095Z,4.59
2019-05-06T03:54:23.041Z,4.52
2019-05-06T03:55:23.454Z,4.50
2019-05-06T03:56:23.629Z,4.54
2019-05-06T03:57:23.180Z,4.47
2019-05-06T03:58:23.632Z,4.52
2019-05-06T03:59:23.353Z,4.36
2019-05-06T04:00:23.663Z,4.50
2019-05-06T04:01:24.037Z,4.54
2019-05-06T04:02:24.031Z,4.50
2019-05-06T04:03:33.783Z,4.42
2019-05-06T04:04:23.394Z,4.43
2019-05-06T04:05:23.888Z,4.40
2019-05-06T04:06:24.139Z,4.44
2019-05-06T04:07:23.603Z,4.43
2019-05-06T04:08:24.102Z,4.51
2019-05-06T04:09:24.094Z,4.37
2019-05-06T04:10:23.163Z,4.46
2019-05-06T04:11:23.199Z,4.47
2019-05-06T04:12:23.585Z,4.51
2019-05-06T04:13:23.485Z,4.55
2019-05-06T04:14:23.896Z,4.58
2019-05-06T04:15:26.867Z,4.52
2019-05-06T04:16:23.926Z,4.58
2019-05-06T04:17:24.073Z,4.54
2019-05-06T04:18:24.219Z,4.47
2019-05-06T04:19:24.364Z,4.54
2019-05-06T04:20:24.511Z,4.37
2019-05-06T04:21:24.660Z,4.39
2019-05-06T04:22:24.800Z,4.50
2019-05-06T04:23:24.946Z,4.55
2019-05-06T04:24:25.089Z,4.57
2019-05-06T04:25:25.235Z,4.64
2019-05-06T04:26:25.379Z,4.70
2019-05-06T04:27:25.523Z,4.67
2019-05-06T04:28:25.665Z,4.70
2019-05-06T04:29:25.811Z,4.76
2019-05-06T04:30:25.959Z,4.75
2019-05-06T04:31:26.104Z,4.77
2019-05-06T04:32:26.253Z,4.73
2019-05-06T04:33:26.396Z,4.70
2019-05-06T04:34:26.544Z,4.79
2019-05-06T04:35:26.682Z,4.69
2019-05-06T04:36:26.831Z,4.77
2019-05-06T04:37:26.974Z,4.77
2019-05-06T04:38:27.118Z,4.89
2019-05-06T04:39:27.263Z,4.89
2019-05-06T04:40:27.407Z,4.92
2019-05-06T04:41:27.554Z,5.02
2019-05-06T04:42:27.704Z,4.94
2019-05-06T04:43:27.852Z,4.91
2019-05-06T04:44:27.992Z,4.94
2019-05-06T04:45:28.137Z,4.94
2019-05-06T04:46:28.283Z,4.86
2019-05-06T04:47:28.427Z,4.75
2019-05-06T04:48:28.576Z,4.80
2019-05-06T04:49:28.723Z,4.86
2019-05-06T04:50:28.867Z,4.96
2019-05-06T04:51:29.012Z,4.95
2019-05-06T04:52:29.158Z,4.92
2019-05-06T04:53:29.303Z,4.88
2019-05-06T04:54:29.451Z,4.79
2019-05-06T04:55:29.611Z,4.67
2019-05-06T04:56:33.142Z,4.83
2019-05-06T04:57:29.885Z,4.77
2019-05-06T04:58:30.031Z,4.72
2019-05-06T04:59:32.549Z,4.65
2019-05-06T05:00:32.997Z,4.58
2019-05-06T05:01:33.869Z,4.69
2019-05-06T05:02:33.426Z,4.62
2019-05-06T05:03:33.365Z,4.75
2019-05-06T05:04:32.744Z,4.86
2019-05-06T05:05:33.129Z,4.89
2019-05-06T05:06:32.884Z,5.04
2019-05-06T05:07:33.456Z,5.12
2019-05-06T05:08:33.174Z,5.17
2019-05-06T05:09:32.608Z,5.09
2019-05-06T05:10:32.294Z,5.17
2019-05-06T05:11:33.299Z,5.20
2019-05-06T05:12:33.632Z,5.28
2019-05-06T05:13:32.975Z,5.14
2019-05-06T05:14:32.812Z,5.01
2019-05-06T05:15:32.650Z,4.80
2019-05-06T05:16:33.186Z,4.67
2019-05-06T05:17:33.193Z,4.79
2019-05-06T05:18:32.941Z,4.77
2019-05-06T05:19:33.089Z,4.99
2019-05-06T05:20:37.774Z,5.04
2019-05-06T05:21:33.378Z,5.04
2019-05-06T05:22:33.522Z,4.99
2019-05-06T05:23:33.671Z,5.04
2019-05-06T05:24:33.813Z,5.05
2019-05-06T05:25:33.958Z,5.16
2019-05-06T05:26:34.105Z,5.28
2019-05-06T05:27:34.248Z,5.27
2019-05-06T05:28:34.396Z,5.19
2019-05-06T05:29:34.542Z,5.31
2019-05-06T05:30:34.690Z,5.52
2019-05-06T05:31:34.836Z,5.48
2019-05-06T05:32:34.984Z,5.50
2019-05-06T05:33:35.126Z,5.45
2019-05-06T05:34:39.864Z,5.57
2019-05-06T05:35:35.419Z,5.66
2019-05-06T05:36:35.565Z,5.56
2019-05-06T05:37:35.711Z,5.64
2019-05-06T05:38:35.858Z,5.57
2019-05-06T05:39:36.003Z,5.67
2019-05-06T05:40:36.149Z,5.83
2019-05-06T05:41:36.295Z,5.89
2019-05-06T05:42:36.441Z,5.75
2019-05-06T05:43:39.407Z,5.68
2019-05-06T05:44:36.735Z,5.66
2019-05-06T05:45:36.881Z,5.68
2019-05-06T05:46:37.025Z,5.52
2019-05-06T05:47:37.171Z,5.48
2019-05-06T05:48:37.320Z,5.53
2019-05-06T05:49:37.464Z,5.59
2019-05-06T05:50:37.612Z,5.50
2019-05-06T05:51:37.757Z,5.55
2019-05-06T05:52:37.904Z,5.66
2019-05-06T05:53:38.049Z,5.56
2019-05-06T05:54:38.197Z,5.59
2019-05-06T05:55:38.341Z,5.64
2019-05-06T05:56:38.487Z,5.70
2019-05-06T05:57:38.646Z,5.82
2019-05-06T05:58:38.781Z,5.73
2019-05-06T05:59:38.925Z,5.85
2019-05-06T06:00:39.070Z,5.85
2019-05-06T06:01:39.219Z,5.86
2019-05-06T06:02:39.365Z,6.00
2019-05-06T06:03:39.507Z,6.29
2019-05-06T06:04:53.449Z,6.38
2019-05-06T06:05:39.805Z,6.29
2019-05-06T06:06:39.946Z,6.41
2019-05-06T06:07:42.123Z,6.44
2019-05-06T06:08:40.239Z,6.33
2019-05-06T06:09:41.873Z,6.44
2019-05-06T06:10:42.480Z,6.56
2019-05-06T06:11:42.079Z,6.65
2019-05-06T06:12:42.802Z,6.62
2019-05-06T06:13:43.238Z,6.89
2019-05-06T06:14:43.186Z,7.02
2019-05-06T06:15:42.350Z,7.19
2019-05-06T06:16:42.270Z,7.31
2019-05-06T06:17:42.596Z,7.32
2019-05-06T06:18:43.126Z,7.32
2019-05-06T06:19:42.424Z,7.37
2019-05-06T06:20:42.389Z,7.49
2019-05-06T06:21:42.818Z,7.45
2019-05-06T06:22:42.580Z,7.52
2019-05-06T06:23:42.440Z,7.56
2019-05-06T06:24:42.914Z,7.55
2019-05-06T06:25:42.743Z,7.50
2019-05-06T06:26:43.101Z,7.74
2019-05-06T06:27:43.021Z,7.66
2019-05-06T06:28:43.170Z,7.40
2019-05-06T06:29:45.354Z,7.53
2019-05-06T06:30:43.464Z,7.71
2019-05-06T06:31:43.611Z,7.77
2019-05-06T06:32:43.760Z,7.87
2019-05-06T06:33:43.905Z,8.03
2019-05-06T06:34:44.053Z,8.08
2019-05-06T06:35:44.212Z,8.29
2019-05-06T06:36:44.352Z,8.39
2019-05-06T06:37:44.502Z,8.44
2019-05-06T06:38:44.647Z,8.65
2019-05-06T06:39:44.796Z,8.54
2019-05-06T06:40:44.945Z,8.33
2019-05-06T06:41:45.094Z,8.57
2019-05-06T06:42:45.241Z,8.71
2019-05-06T06:43:45.393Z,8.72
2019-05-06T06:44:45.535Z,8.60
2019-05-06T06:45:45.704Z,8.51
2019-05-06T06:46:45.832Z,8.44
2019-05-06T06:47:45.979Z,8.54
2019-05-06T06:48:46.130Z,8.39
2019-05-06T06:49:46.276Z,8.36
2019-05-06T06:50:46.423Z,8.47
2019-05-06T06:51:46.573Z,8.45
2019-05-06T06:52:46.719Z,8.58
2019-05-06T06:53:46.867Z,8.71
2019-05-06T06:54:47.014Z,8.78
2019-05-06T06:55:47.163Z,8.75
2019-05-06T06:56:47.311Z,8.96
2019-05-06T06:57:47.457Z,8.87
2019-05-06T06:58:47.605Z,9.05
2019-05-06T06:59:47.752Z,9.02
2019-05-06T07:00:47.900Z,8.91
2019-05-06T07:01:48.049Z,8.97
2019-05-06T07:02:48.198Z,9.12
2019-05-06T07:03:48.348Z,9.27
2019-05-06T07:04:48.494Z,9.43
2019-05-06T07:05:48.641Z,9.49
2019-05-06T07:06:48.788Z,9.46
2019-05-06T07:07:48.938Z,9.35
2019-05-06T07:08:49.088Z,9.43
2019-05-06T07:09:49.234Z,9.40
2019-05-06T07:10:49.384Z,9.38
2019-05-06T07:11:49.531Z,9.01
2019-05-06T07:12:49.679Z,8.76
2019-05-06T07:13:49.830Z,8.69
2019-05-06T07:14:52.219Z,8.81
2019-05-06T07:15:52.015Z,8.71
2019-05-06T07:16:50.275Z,8.78
2019-05-06T07:17:52.401Z,8.87
2019-05-06T07:18:52.597Z,8.91
2019-05-06T07:19:52.676Z,8.91
2019-05-06T07:20:52.596Z,8.93
2019-05-06T07:21:52.228Z,8.84
2019-05-06T07:22:52.933Z,8.91
2019-05-06T07:23:52.976Z,8.75
2019-05-06T07:24:52.763Z,8.69
2019-05-06T07:25:53.776Z,8.60
2019-05-06T07:26:52.467Z,8.65
2019-05-06T07:27:52.936Z,8.81
2019-05-06T07:28:52.623Z,8.73
2019-05-06T07:29:52.424Z,8.73
2019-05-06T07:30:52.343Z,8.68
2019-05-06T07:31:53.453Z,8.78
2019-05-06T07:32:52.803Z,9.13
2019-05-06T07:33:52.788Z,9.25
2019-05-06T07:34:53.281Z,9.43
2019-05-06T07:35:53.317Z,9.50
2019-05-06T07:36:53.261Z,9.49
2019-05-06T07:37:53.380Z,9.64
2019-05-06T07:38:53.529Z,9.76
2019-05-06T07:39:53.676Z,9.93
2019-05-06T07:40:53.823Z,10.22
2019-05-06T07:41:53.971Z,10.43
2019-05-06T07:42:54.119Z,10.34
2019-05-06T07:43:54.268Z,10.26
2019-05-06T07:44:54.417Z,10.17
2019-05-06T07:45:54.577Z,10.06
2019-05-06T07:46:54.709Z,10.17
2019-05-06T07:47:54.904Z,10.26
2019-05-06T07:48:55.009Z,10.19
2019-05-06T07:49:55.155Z,10.17
2019-05-06T07:50:55.305Z,10.09
2019-05-06T07:51:55.454Z,10.19
2019-05-06T07:52:55.612Z,9.97
2019-05-06T07:53:55.756Z,9.81
2019-05-06T07:54:55.901Z,9.83
2019-05-06T07:55:56.052Z,9.67
2019-05-06T07:56:56.199Z,9.63
2019-05-06T07:57:56.349Z,9.73
2019-05-06T07:58:56.496Z,9.70
2019-05-06T07:59:56.644Z,9.64
2019-05-06T08:00:56.793Z,9.49
2019-05-06T08:01:56.944Z,9.58
2019-05-06T08:02:57.091Z,9.75
2019-05-06T08:03:57.241Z,9.60
2019-05-06T08:04:57.387Z,9.67
2019-05-06T08:05:58.776Z,9.73
2019-05-06T08:06:57.685Z,9.76
2019-05-06T08:07:57.835Z,9.67
2019-05-06T08:08:57.982Z,9.67
2019-05-06T08:09:58.132Z,9.70
2019-05-06T08:10:58.279Z,9.73
2019-05-06T08:11:58.427Z,9.81
2019-05-06T08:12:58.576Z,9.61
2019-05-06T08:13:58.724Z,9.53
2019-05-06T08:14:58.874Z,9.56
2019-05-06T08:15:59.022Z,9.38
2019-05-06T08:16:59.169Z,9.35
2019-05-06T08:17:59.318Z,9.25
2019-05-06T08:18:59.471Z,9.25
2019-05-06T08:20:02.304Z,9.34
2019-05-06T08:20:59.765Z,9.45
2019-05-06T08:21:59.911Z,9.57
2019-05-06T08:23:02.065Z,9.78
2019-05-06T08:24:00.208Z,9.89
2019-05-06T08:25:03.262Z,10.09
2019-05-06T08:26:10.053Z,10.55
2019-05-06T08:27:02.510Z,10.68
2019-05-06T08:28:02.292Z,10.71
2019-05-06T08:29:02.788Z,10.73
2019-05-06T08:30:02.412Z,10.89
2019-05-06T08:31:02.386Z,11.02
2019-05-06T08:32:02.937Z,11.16
2019-05-06T08:33:02.267Z,11.03
2019-05-06T08:34:02.684Z,11.10
2019-05-06T08:35:03.370Z,10.96
2019-05-06T08:36:11.363Z,10.86
2019-05-06T08:37:02.512Z,10.83
2019-05-06T08:38:02.448Z,10.58
2019-05-06T08:39:02.965Z,10.43
2019-05-06T08:40:03.282Z,10.52
2019-05-06T08:41:02.791Z,10.40
2019-05-06T08:42:02.892Z,10.32
2019-05-06T08:43:03.041Z,10.25
2019-05-06T08:44:03.201Z,10.26
2019-05-06T08:45:03.339Z,10.19
2019-05-06T08:46:03.504Z,10.25
2019-05-06T08:47:03.637Z,10.15
2019-05-06T08:48:03.783Z,10.12
2019-05-06T08:49:03.935Z,9.91
2019-05-06T08:50:04.102Z,9.88
2019-05-06T08:51:04.233Z,9.81
2019-05-06T08:52:04.382Z,9.78
2019-05-06T08:53:05.210Z,9.58
2019-05-06T08:54:04.679Z,9.60
2019-05-06T08:55:04.956Z,9.53
2019-05-06T08:56:04.983Z,9.61
2019-05-06T08:57:05.125Z,9.50
2019-05-06T08:58:05.274Z,9.71
2019-05-06T08:59:05.427Z,9.86
2019-05-06T09:00:05.574Z,9.85
2019-05-06T09:01:05.724Z,9.88
2019-05-06T09:02:05.871Z,10.04
2019-05-06T09:03:06.020Z,9.89
2019-05-06T09:04:12.199Z,10.01
2019-05-06T09:05:06.315Z,10.24
2019-05-06T09:06:07.511Z,10.39
2019-05-06T09:07:06.616Z,10.42
2019-05-06T09:08:06.767Z,10.25
2019-05-06T09:09:06.916Z,10.24
2019-05-06T09:10:07.066Z,10.25
2019-05-06T09:11:07.216Z,10.09
2019-05-06T09:12:07.363Z,10.09
2019-05-06T09:13:07.512Z,10.00
2019-05-06T09:14:09.859Z,9.89
2019-05-06T09:15:07.816Z,9.63
2019-05-06T09:16:07.958Z,9.50
2019-05-06T09:17:08.108Z,9.52
2019-05-06T09:18:08.256Z,9.48
2019-05-06T09:19:08.407Z,9.50
2019-05-06T09:20:08.570Z,9.38
2019-05-06T09:21:08.705Z,9.42
2019-05-06T09:22:08.854Z,9.25
2019-05-06T09:23:09.003Z,9.28
2019-05-06T09:24:09.153Z,9.31
2019-05-06T09:25:09.300Z,9.30
2019-05-06T09:26:09.447Z,9.38
2019-05-06T09:27:09.598Z,9.21
2019-05-06T09:28:09.746Z,9.39
2019-05-06T09:29:09.893Z,9.38
2019-05-06T09:30:10.043Z,9.32
2019-05-06T09:31:12.506Z,9.45
2019-05-06T09:32:10.344Z,9.64
2019-05-06T09:33:10.489Z,9.78
2019-05-06T09:34:12.890Z,9.86
2019-05-06T09:35:12.935Z,10.04
2019-05-06T09:36:12.748Z,10.06
2019-05-06T09:37:13.336Z,10.21
2019-05-06T09:38:12.718Z,10.17
2019-05-06T09:39:13.012Z,10.26
2019-05-06T09:40:12.703Z,10.55
2019-05-06T09:41:12.432Z,10.88
2019-05-06T09:42:12.785Z,11.03
2019-05-06T09:43:13.204Z,11.10
2019-05-06T09:44:12.480Z,11.39
2019-05-06T09:45:12.561Z,11.50
2019-05-06T09:46:12.917Z,11.71
2019-05-06T09:47:12.766Z,11.89
2019-05-06T09:48:13.037Z,11.89
2019-05-06T09:49:12.891Z,11.97
2019-05-06T09:50:13.049Z,11.86
2019-05-06T09:51:13.225Z,11.65
2019-05-06T09:52:13.322Z,11.43
2019-05-06T09:53:13.470Z,11.49
2019-05-06T09:54:13.621Z,11.64
2019-05-06T09:55:13.772Z,11.52
2019-05-06T09:56:13.922Z,11.53
2019-05-06T09:57:14.073Z,11.52
2019-05-06T09:58:14.221Z,11.50
2019-05-06T09:59:14.373Z,11.50
2019-05-06T10:00:14.521Z,11.43
2019-05-06T10:01:14.673Z,11.17
2019-05-06T10:02:14.822Z,11.28
2019-05-06T10:03:14.975Z,11.20
2019-05-06T10:04:15.126Z,11.38
2019-05-06T10:05:15.277Z,11.47
2019-05-06T10:06:15.427Z,11.67
2019-05-06T10:07:15.577Z,11.74
2019-05-06T10:08:15.751Z,11.65
2019-05-06T10:09:16.528Z,12.13
2019-05-06T10:10:17.796Z,12.15
2019-05-06T10:11:16.176Z,12.11
2019-05-06T10:12:16.332Z,12.31
2019-05-06T10:13:16.478Z,12.46
2019-05-06T10:14:16.658Z,12.48
2019-05-06T10:15:16.780Z,12.56
2019-05-06T10:16:16.939Z,12.62
2019-05-06T10:17:17.084Z,12.74
2019-05-06T10:18:17.235Z,12.56
2019-05-06T10:19:17.386Z,12.85
2019-05-06T10:20:17.543Z,12.66
2019-05-06T10:21:17.686Z,12.79
2019-05-06T10:22:17.835Z,12.56
2019-05-06T10:23:17.987Z,12.27
2019-05-06T10:24:18.139Z,12.01
2019-05-06T10:25:18.291Z,11.80
2019-05-06T10:26:18.445Z,11.86
2019-05-06T10:27:18.596Z,11.85
2019-05-06T10:28:18.748Z,11.99
2019-05-06T10:29:18.901Z,12.19
2019-05-06T10:30:19.052Z,12.23
2019-05-06T10:31:19.203Z,11.99
2019-05-06T10:32:19.356Z,12.06
2019-05-06T10:33:19.505Z,12.48
2019-05-06T10:34:22.059Z,12.78
2019-05-06T10:35:22.063Z,12.79
2019-05-06T10:36:19.960Z,13.11
2019-05-06T10:37:20.108Z,12.67
2019-05-06T10:38:20.259Z,12.49
2019-05-06T10:39:20.411Z,12.05
2019-05-06T10:40:22.605Z,12.42
2019-05-06T10:41:22.372Z,12.27
2019-05-06T10:42:22.690Z,12.42
2019-05-06T10:43:22.061Z,12.89
2019-05-06T10:44:22.600Z,12.87
2019-05-06T10:45:21.319Z,12.81
2019-05-06T10:46:22.547Z,12.95
2019-05-06T10:47:22.641Z,12.92
2019-05-06T10:48:22.472Z,12.70
2019-05-06T10:49:22.628Z,12.69
2019-05-06T10:50:22.976Z,12.56
2019-05-06T10:51:22.898Z,12.52
2019-05-06T10:52:22.372Z,12.42
2019-05-06T10:53:23.341Z,12.33
2019-05-06T10:54:22.974Z,12.20
2019-05-06T10:55:23.277Z,12.20
2019-05-06T10:56:23.106Z,12.33
2019-05-06T10:57:23.131Z,12.23
2019-05-06T10:58:23.286Z,12.49
2019-05-06T10:59:23.434Z,12.52
2019-05-06T11:00:23.588Z,12.45
2019-05-06T11:01:23.739Z,12.42
2019-05-06T11:02:23.884Z,12.30
2019-05-06T11:03:27.162Z,12.30
2019-05-06T11:04:24.197Z,12.41
2019-05-06T11:05:24.353Z,12.63
2019-05-06T11:06:24.506Z,12.44
2019-05-06T11:07:31.777Z,12.38
2019-05-06T11:08:24.807Z,12.27
2019-05-06T11:09:24.960Z,12.08
2019-05-06T11:10:32.157Z,11.99
2019-05-06T11:11:35.171Z,11.93
2019-05-06T11:12:25.414Z,12.02
2019-05-06T11:13:25.568Z,11.90
2019-05-06T11:14:25.714Z,12.11
2019-05-06T11:15:25.865Z,12.15
2019-05-06T11:16:26.022Z,12.37
2019-05-06T11:17:26.164Z,12.19
2019-05-06T11:18:26.316Z,12.45
2019-05-06T11:19:26.469Z,12.41
2019-05-06T11:20:26.625Z,12.64
2019-05-06T11:21:26.793Z,12.60
2019-05-06T11:22:26.927Z,12.67
2019-05-06T11:23:27.080Z,12.74
2019-05-06T11:24:27.238Z,13.12
2019-05-06T11:25:27.377Z,13.33
2019-05-06T11:26:27.529Z,13.29
2019-05-06T11:27:32.410Z,12.89
2019-05-06T11:28:27.832Z,12.95
2019-05-06T11:29:27.990Z,12.78
2019-05-06T11:30:28.138Z,13.04
2019-05-06T11:31:28.288Z,13.11
2019-05-06T11:32:28.437Z,13.44
2019-05-06T11:33:28.589Z,13.83
2019-05-06T11:34:28.741Z,14.04
2019-05-06T11:35:28.893Z,13.99
2019-05-06T11:36:29.045Z,13.76
2019-05-06T11:37:42.296Z,14.14
2019-05-06T11:38:29.351Z,14.10
2019-05-06T11:39:29.504Z,14.04
2019-05-06T11:40:29.659Z,14.01
2019-05-06T11:41:32.124Z,13.80
2019-05-06T11:42:33.527Z,13.58
2019-05-06T11:43:32.324Z,13.40
2019-05-06T11:44:31.978Z,13.24
2019-05-06T11:45:32.220Z,13.41
2019-05-06T11:46:32.257Z,13.20
2019-05-06T11:47:32.496Z,13.21
2019-05-06T11:48:32.738Z,13.03
2019-05-06T11:49:32.662Z,12.93
2019-05-06T11:50:33.295Z,12.75
2019-05-06T11:51:32.978Z,12.77
2019-05-06T11:52:31.478Z,12.95
2019-05-06T11:53:32.627Z,12.71
2019-05-06T11:54:33.727Z,12.69
2019-05-06T11:55:37.853Z,12.54
2019-05-06T11:56:32.672Z,12.62
2019-05-06T11:57:32.617Z,12.39
2019-05-06T11:58:32.393Z,12.37
2019-05-06T11:59:32.547Z,12.27
2019-05-06T12:00:33.306Z,12.42
2019-05-06T12:01:33.086Z,12.38
2019-05-06T12:02:33.130Z,12.42
2019-05-06T12:03:33.165Z,12.41
2019-05-06T12:04:33.317Z,12.54
2019-05-06T12:05:33.468Z,12.60
2019-05-06T12:06:33.626Z,12.62
2019-05-06T12:07:33.770Z,12.46
2019-05-06T12:08:33.921Z,12.63
2019-05-06T12:09:34.072Z,12.57
2019-05-06T12:10:34.223Z,12.62
2019-05-06T12:11:34.379Z,12.77
2019-05-06T12:12:34.524Z,12.81
2019-05-06T12:13:38.003Z,12.64
2019-05-06T12:14:34.830Z,12.69
2019-05-06T12:15:34.982Z,12.67
2019-05-06T12:16:35.171Z,12.52
2019-05-06T12:17:35.286Z,12.49
2019-05-06T12:18:35.437Z,12.77
2019-05-06T12:19:35.588Z,12.44
2019-05-06T12:20:35.738Z,12.31
2019-05-06T12:21:35.892Z,12.45
2019-05-06T12:22:36.045Z,12.46
2019-05-06T12:23:36.196Z,12.84
2019-05-06T12:24:36.350Z,12.96
2019-05-06T12:25:36.500Z,12.81
2019-05-06T12:26:36.652Z,12.77
2019-05-06T12:27:36.805Z,12.45
2019-05-06T12:28:36.956Z,12.42
2019-05-06T12:29:38.426Z,12.54
2019-05-06T12:30:37.257Z,12.26
2019-05-06T12:31:37.407Z,12.19
2019-05-06T12:32:37.560Z,12.31
2019-05-06T12:33:37.715Z,12.44
2019-05-06T12:34:37.864Z,12.37
2019-05-06T12:35:38.017Z,12.39
2019-05-06T12:36:38.168Z,12.39
2019-05-06T12:37:38.321Z,12.54
2019-05-06T12:38:38.474Z,12.41
2019-05-06T12:39:38.627Z,12.27
2019-05-06T12:40:38.779Z,12.16
2019-05-06T12:41:38.929Z,11.99
2019-05-06T12:42:39.083Z,11.94
2019-05-06T12:43:39.231Z,12.05
2019-05-06T12:44:39.392Z,12.09
2019-05-06T12:45:39.535Z,12.23
2019-05-06T12:46:39.685Z,12.34
2019-05-06T12:47:42.527Z,12.29
2019-05-06T12:48:39.989Z,12.41
2019-05-06T12:49:42.432Z,12.34
2019-05-06T12:50:42.856Z,12.16
2019-05-06T12:51:40.447Z,12.33
2019-05-06T12:52:43.821Z,12.31
2019-05-06T12:53:42.775Z,12.41
2019-05-06T12:54:43.005Z,12.34
2019-05-06T12:55:43.046Z,12.41
2019-05-06T12:56:42.502Z,12.44
2019-05-06T12:57:43.288Z,12.69
2019-05-06T12:58:44.088Z,12.77
2019-05-06T12:59:42.530Z,12.99
2019-05-06T13:00:41.804Z,12.89
2019-05-06T13:01:45.327Z,12.97
2019-05-06T13:02:43.603Z,12.69
2019-05-06T13:03:43.262Z,12.31
2019-05-06T13:04:51.643Z,12.24
2019-05-06T13:05:42.884Z,12.27
2019-05-06T13:06:46.202Z,12.37
2019-05-06T13:07:42.874Z,12.46
2019-05-06T13:08:56.828Z,12.49
2019-05-06T13:09:45.341Z,12.48
2019-05-06T13:10:43.327Z,12.57
2019-05-06T13:11:43.476Z,12.41